sensor_id;sensor_type;location;lat;lon;timestamp;noise_LAeq;noise_LA_min;noise_LA_max;noise_LA01;noise_LA95
70245;Laerm;57637;49.272;8.590;2023-02-28T00:00:45;44.18;39.49;54.32;;
70245;Laerm;57637;49.272;8.590;2023-02-28T00:03:11;44.76;40.17;51.84;;
70245;Laerm;57637;49.272;8.590;2023-02-28T00:05:36;43.98;39.37;50.97;;
70245;Laerm;57637;49.272;8.590;2023-02-28T00:08:01;44.47;39.43;57.11;;
70245;Laerm;57637;49.272;8.590;2023-02-28T00:10:31;45.14;39.76;51.81;;
70245;Laerm;57637;49.272;8.590;2023-02-28T00:13:02;44.32;38.97;48.74;;
70245;Laerm;57637;49.272;8.590;2023-02-28T00:15:28;43.95;39.49;50.07;;
70245;Laerm;57637;49.272;8.590;2023-02-28T00:17:53;43.05;38.88;52.49;;
70245;Laerm;57637;49.272;8.590;2023-02-28T00:20:18;44.21;39.35;49.92;;
70245;Laerm;57637;49.272;8.590;2023-02-28T00:22:47;44.61;39.91;53.68;;
70245;Laerm;57637;49.272;8.590;2023-02-28T00:25:16;44.73;40.22;51.02;;
70245;Laerm;57637;49.272;8.590;2023-02-28T00:27:42;44.56;40.09;49.22;;
70245;Laerm;57637;49.272;8.590;2023-02-28T00:30:13;45.53;40.33;52.51;;
70245;Laerm;57637;49.272;8.590;2023-02-28T00:32:39;44.95;40.16;50.20;;
70245;Laerm;57637;49.272;8.590;2023-02-28T00:35:05;45.20;40.48;52.32;;
70245;Laerm;57637;49.272;8.590;2023-02-28T00:37:31;43.72;39.65;54.60;;
70245;Laerm;57637;49.272;8.590;2023-02-28T00:39:57;44.22;38.71;51.33;;
70245;Laerm;57637;49.272;8.590;2023-02-28T00:42:22;44.19;39.09;50.13;;
70245;Laerm;57637;49.272;8.590;2023-02-28T00:44:48;45.28;40.07;53.70;;
70245;Laerm;57637;49.272;8.590;2023-02-28T00:47:13;43.71;39.27;50.18;;
70245;Laerm;57637;49.272;8.590;2023-02-28T00:49:39;43.32;38.79;47.76;;
70245;Laerm;57637;49.272;8.590;2023-02-28T00:52:05;43.09;38.76;52.56;;
70245;Laerm;57637;49.272;8.590;2023-02-28T00:54:30;44.24;39.36;50.93;;
70245;Laerm;57637;49.272;8.590;2023-02-28T00:56:56;44.07;39.16;49.16;;
70245;Laerm;57637;49.272;8.590;2023-02-28T00:59:21;43.77;39.48;49.34;;
70245;Laerm;57637;49.272;8.590;2023-02-28T01:01:47;43.83;39.43;50.18;;
70245;Laerm;57637;49.272;8.590;2023-02-28T01:04:13;44.31;39.82;51.74;;
70245;Laerm;57637;49.272;8.590;2023-02-28T01:06:39;43.43;37.65;49.06;;
70245;Laerm;57637;49.272;8.590;2023-02-28T01:09:07;44.79;40.79;50.09;;
70245;Laerm;57637;49.272;8.590;2023-02-28T01:11:33;45.67;39.89;53.91;;
70245;Laerm;57637;49.272;8.590;2023-02-28T01:14:00;44.73;39.59;51.68;;
70245;Laerm;57637;49.272;8.590;2023-02-28T01:16:26;45.24;40.76;52.29;;
70245;Laerm;57637;49.272;8.590;2023-02-28T01:18:52;44.34;38.87;50.82;;
70245;Laerm;57637;49.272;8.590;2023-02-28T01:21:19;44.57;37.77;60.73;;
70245;Laerm;57637;49.272;8.590;2023-02-28T01:23:45;45.35;39.82;50.69;;
70245;Laerm;57637;49.272;8.590;2023-02-28T01:26:17;45.05;40.34;51.69;;
70245;Laerm;57637;49.272;8.590;2023-02-28T01:28:42;44.36;39.62;50.24;;
70245;Laerm;57637;49.272;8.590;2023-02-28T01:31:09;44.35;40.81;50.54;;
70245;Laerm;57637;49.272;8.590;2023-02-28T01:33:35;44.62;39.49;50.69;;
70245;Laerm;57637;49.272;8.590;2023-02-28T01:36:05;43.98;39.79;49.86;;
70245;Laerm;57637;49.272;8.590;2023-02-28T01:38:31;45.01;40.51;51.30;;
70245;Laerm;57637;49.272;8.590;2023-02-28T01:40:57;43.98;39.97;50.20;;
70245;Laerm;57637;49.272;8.590;2023-02-28T01:43:31;43.57;39.60;49.27;;
70245;Laerm;57637;49.272;8.590;2023-02-28T01:45:58;44.16;39.44;50.89;;
70245;Laerm;57637;49.272;8.590;2023-02-28T01:48:37;44.58;40.63;49.08;;
70245;Laerm;57637;49.272;8.590;2023-02-28T01:51:09;44.44;40.04;51.39;;
70245;Laerm;57637;49.272;8.590;2023-02-28T01:53:46;45.37;40.32;62.14;;
70245;Laerm;57637;49.272;8.590;2023-02-28T01:56:19;44.72;39.91;56.54;;
70245;Laerm;57637;49.272;8.590;2023-02-28T01:58:47;44.60;40.16;52.86;;
70245;Laerm;57637;49.272;8.590;2023-02-28T02:01:13;45.06;41.31;50.09;;
70245;Laerm;57637;49.272;8.590;2023-02-28T02:03:48;44.62;40.57;50.72;;
70245;Laerm;57637;49.272;8.590;2023-02-28T02:06:21;44.60;39.53;57.77;;
70245;Laerm;57637;49.272;8.590;2023-02-28T02:08:47;44.69;39.02;65.88;;
70245;Laerm;57637;49.272;8.590;2023-02-28T02:11:13;44.56;40.11;54.59;;
70245;Laerm;57637;49.272;8.590;2023-02-28T02:16:43;43.05;38.80;51.53;;
70245;Laerm;57637;49.272;8.590;2023-02-28T02:22:35;45.79;40.14;57.89;;
70245;Laerm;57637;49.272;8.590;2023-02-28T02:33:14;44.85;39.96;50.64;;
70245;Laerm;57637;49.272;8.590;2023-02-28T02:35:57;44.64;40.86;51.19;;
70245;Laerm;57637;49.272;8.590;2023-02-28T02:43:53;44.82;39.51;51.75;;
70245;Laerm;57637;49.272;8.590;2023-02-28T02:46:29;45.13;40.79;56.24;;
70245;Laerm;57637;49.272;8.590;2023-02-28T02:48:57;45.09;40.23;52.20;;
70245;Laerm;57637;49.272;8.590;2023-02-28T02:51:26;46.21;42.09;51.16;;
70245;Laerm;57637;49.272;8.590;2023-02-28T02:53:57;45.52;41.40;56.68;;
70245;Laerm;57637;49.272;8.590;2023-02-28T02:56:27;46.58;41.70;61.95;;
70245;Laerm;57637;49.272;8.590;2023-02-28T02:58:57;45.25;40.96;58.43;;
70245;Laerm;57637;49.272;8.590;2023-02-28T03:01:26;45.92;41.13;52.71;;
70245;Laerm;57637;49.272;8.590;2023-02-28T03:03:59;44.72;40.69;51.79;;
70245;Laerm;57637;49.272;8.590;2023-02-28T03:06:27;45.73;42.05;51.29;;
70245;Laerm;57637;49.272;8.590;2023-02-28T03:08:53;46.01;42.30;52.27;;
70245;Laerm;57637;49.272;8.590;2023-02-28T03:11:18;46.51;41.70;51.44;;
70245;Laerm;57637;49.272;8.590;2023-02-28T03:14:08;46.20;41.80;52.69;;
70245;Laerm;57637;49.272;8.590;2023-02-28T03:16:46;46.12;41.84;52.28;;
70245;Laerm;57637;49.272;8.590;2023-02-28T03:19:25;45.72;41.63;57.51;;
70245;Laerm;57637;49.272;8.590;2023-02-28T03:25:12;46.98;42.33;63.14;;
70245;Laerm;57637;49.272;8.590;2023-02-28T03:30:57;46.83;42.46;56.05;;
70245;Laerm;57637;49.272;8.590;2023-02-28T03:33:28;47.13;42.34;63.13;;
70245;Laerm;57637;49.272;8.590;2023-02-28T03:36:02;46.26;42.13;51.99;;
70245;Laerm;57637;49.272;8.590;2023-02-28T03:38:41;47.90;42.73;61.19;;
70245;Laerm;57637;49.272;8.590;2023-02-28T03:41:15;48.18;44.86;52.87;;
70245;Laerm;57637;49.272;8.590;2023-02-28T03:43:49;47.29;43.29;51.79;;
70245;Laerm;57637;49.272;8.590;2023-02-28T03:46:19;47.17;43.67;52.56;;
70245;Laerm;57637;49.272;8.590;2023-02-28T03:48:51;46.26;41.97;57.76;;
70245;Laerm;57637;49.272;8.590;2023-02-28T03:51:24;46.11;41.71;53.50;;
70245;Laerm;57637;49.272;8.590;2023-02-28T03:53:58;47.20;41.89;53.68;;
70245;Laerm;57637;49.272;8.590;2023-02-28T03:56:34;47.49;43.15;57.02;;
70245;Laerm;57637;49.272;8.590;2023-02-28T03:59:14;48.30;44.09;64.38;;
70245;Laerm;57637;49.272;8.590;2023-02-28T04:01:45;47.61;43.74;52.61;;
70245;Laerm;57637;49.272;8.590;2023-02-28T04:04:13;47.73;43.96;53.10;;
70245;Laerm;57637;49.272;8.590;2023-02-28T04:06:40;47.90;43.89;59.78;;
70245;Laerm;57637;49.272;8.590;2023-02-28T04:09:08;48.01;43.93;56.08;;
70245;Laerm;57637;49.272;8.590;2023-02-28T04:11:38;48.12;43.19;53.21;;
70245;Laerm;57637;49.272;8.590;2023-02-28T04:14:05;47.80;43.98;56.93;;
70245;Laerm;57637;49.272;8.590;2023-02-28T04:16:32;47.54;43.41;55.20;;
70245;Laerm;57637;49.272;8.590;2023-02-28T04:18:58;47.71;43.78;55.07;;
70245;Laerm;57637;49.272;8.590;2023-02-28T04:21:28;47.95;44.42;52.28;;
70245;Laerm;57637;49.272;8.590;2023-02-28T04:23:53;49.24;45.00;53.39;;
70245;Laerm;57637;49.272;8.590;2023-02-28T04:26:18;48.63;44.59;57.56;;
70245;Laerm;57637;49.272;8.590;2023-02-28T04:28:44;48.57;44.74;52.53;;
70245;Laerm;57637;49.272;8.590;2023-02-28T04:31:09;48.85;44.93;58.94;;
70245;Laerm;57637;49.272;8.590;2023-02-28T04:33:35;47.90;44.46;53.42;;
70245;Laerm;57637;49.272;8.590;2023-02-28T04:36:05;47.76;44.26;54.05;;
70245;Laerm;57637;49.272;8.590;2023-02-28T04:38:34;48.62;44.29;53.62;;
70245;Laerm;57637;49.272;8.590;2023-02-28T04:41:00;48.02;43.87;57.17;;
70245;Laerm;57637;49.272;8.590;2023-02-28T04:43:27;48.73;44.94;54.52;;
70245;Laerm;57637;49.272;8.590;2023-02-28T04:45:54;48.96;45.46;57.54;;
70245;Laerm;57637;49.272;8.590;2023-02-28T04:48:23;48.88;45.18;53.16;;
70245;Laerm;57637;49.272;8.590;2023-02-28T04:50:48;48.77;44.16;58.36;;
70245;Laerm;57637;49.272;8.590;2023-02-28T04:53:14;50.21;46.09;56.12;;
70245;Laerm;57637;49.272;8.590;2023-02-28T04:55:39;49.41;45.52;53.28;;
70245;Laerm;57637;49.272;8.590;2023-02-28T04:58:05;48.98;44.44;53.52;;
70245;Laerm;57637;49.272;8.590;2023-02-28T05:00:31;49.05;44.59;55.07;;
70245;Laerm;57637;49.272;8.590;2023-02-28T05:02:56;49.32;44.84;53.82;;
70245;Laerm;57637;49.272;8.590;2023-02-28T05:05:21;49.19;45.56;53.81;;
70245;Laerm;57637;49.272;8.590;2023-02-28T05:07:47;49.91;45.79;66.43;;
70245;Laerm;57637;49.272;8.590;2023-02-28T05:10:12;49.69;45.48;55.14;;
70245;Laerm;57637;49.272;8.590;2023-02-28T05:12:37;50.10;46.31;61.88;;
70245;Laerm;57637;49.272;8.590;2023-02-28T05:15:04;49.32;45.71;57.63;;
70245;Laerm;57637;49.272;8.590;2023-02-28T05:17:30;49.08;45.35;60.65;;
70245;Laerm;57637;49.272;8.590;2023-02-28T05:19:55;50.66;45.63;62.50;;
70245;Laerm;57637;49.272;8.590;2023-02-28T05:22:21;50.23;45.91;56.43;;
70245;Laerm;57637;49.272;8.590;2023-02-28T05:24:48;48.89;44.20;52.89;;
70245;Laerm;57637;49.272;8.590;2023-02-28T05:27:13;49.57;46.00;55.23;;
70245;Laerm;57637;49.272;8.590;2023-02-28T05:29:38;49.57;46.25;56.20;;
70245;Laerm;57637;49.272;8.590;2023-02-28T05:32:11;49.74;45.69;54.92;;
70245;Laerm;57637;49.272;8.590;2023-02-28T05:34:40;50.10;46.44;53.80;;
70245;Laerm;57637;49.272;8.590;2023-02-28T05:37:07;49.25;45.51;55.65;;
70245;Laerm;57637;49.272;8.590;2023-02-28T05:39:35;49.46;45.41;54.73;;
70245;Laerm;57637;49.272;8.590;2023-02-28T05:42:01;49.71;45.90;55.54;;
70245;Laerm;57637;49.272;8.590;2023-02-28T05:44:26;49.07;44.48;63.73;;
70245;Laerm;57637;49.272;8.590;2023-02-28T05:46:52;49.06;45.16;52.21;;
70245;Laerm;57637;49.272;8.590;2023-02-28T05:49:17;49.26;45.30;53.99;;
70245;Laerm;57637;49.272;8.590;2023-02-28T05:51:42;49.14;45.23;58.88;;
70245;Laerm;57637;49.272;8.590;2023-02-28T05:54:08;49.84;46.20;58.98;;
70245;Laerm;57637;49.272;8.590;2023-02-28T05:56:33;49.05;44.81;61.99;;
70245;Laerm;57637;49.272;8.590;2023-02-28T05:59:04;48.85;44.46;68.15;;
70245;Laerm;57637;49.272;8.590;2023-02-28T06:01:41;49.08;45.54;59.82;;
70245;Laerm;57637;49.272;8.590;2023-02-28T06:04:09;48.99;45.42;60.12;;
70245;Laerm;57637;49.272;8.590;2023-02-28T06:06:35;50.99;45.08;66.60;;
70245;Laerm;57637;49.272;8.590;2023-02-28T06:09:03;49.64;45.92;60.70;;
70245;Laerm;57637;49.272;8.590;2023-02-28T06:11:28;49.53;46.26;53.61;;
70245;Laerm;57637;49.272;8.590;2023-02-28T06:13:55;49.26;45.76;55.46;;
70245;Laerm;57637;49.272;8.590;2023-02-28T06:16:21;49.77;45.24;69.41;;
70245;Laerm;57637;49.272;8.590;2023-02-28T06:18:47;49.51;44.57;64.80;;
70245;Laerm;57637;49.272;8.590;2023-02-28T06:21:12;49.15;45.39;57.53;;
70245;Laerm;57637;49.272;8.590;2023-02-28T06:23:38;50.39;46.04;65.88;;
70245;Laerm;57637;49.272;8.590;2023-02-28T06:26:03;53.16;45.46;67.80;;
70245;Laerm;57637;49.272;8.590;2023-02-28T06:28:29;54.68;45.45;86.53;;
70245;Laerm;57637;49.272;8.590;2023-02-28T06:30:54;49.63;45.04;62.05;;
70245;Laerm;57637;49.272;8.590;2023-02-28T06:33:20;52.79;46.09;69.51;;
70245;Laerm;57637;49.272;8.590;2023-02-28T06:35:52;52.41;45.97;71.87;;
70245;Laerm;57637;49.272;8.590;2023-02-28T06:38:17;53.01;45.99;69.58;;
70245;Laerm;57637;49.272;8.590;2023-02-28T06:40:43;58.86;46.06;79.00;;
70245;Laerm;57637;49.272;8.590;2023-02-28T06:43:09;55.61;45.88;75.58;;
70245;Laerm;57637;49.272;8.590;2023-02-28T06:45:41;55.68;46.30;72.21;;
70245;Laerm;57637;49.272;8.590;2023-02-28T06:48:06;51.09;44.55;74.91;;
70245;Laerm;57637;49.272;8.590;2023-02-28T06:50:32;50.61;45.33;61.22;;
70245;Laerm;57637;49.272;8.590;2023-02-28T06:52:58;51.02;45.20;68.84;;
70245;Laerm;57637;49.272;8.590;2023-02-28T06:55:23;51.57;45.29;78.86;;
70245;Laerm;57637;49.272;8.590;2023-02-28T06:57:48;51.03;45.18;61.98;;
70245;Laerm;57637;49.272;8.590;2023-02-28T07:00:16;61.12;44.61;83.49;;
70245;Laerm;57637;49.272;8.590;2023-02-28T07:02:41;54.78;45.75;70.32;;
70245;Laerm;57637;49.272;8.590;2023-02-28T07:05:07;58.93;45.32;80.02;;
70245;Laerm;57637;49.272;8.590;2023-02-28T07:07:32;57.85;44.91;80.18;;
70245;Laerm;57637;49.272;8.590;2023-02-28T07:09:58;53.28;45.21;71.27;;
70245;Laerm;57637;49.272;8.590;2023-02-28T07:12:23;51.08;44.58;69.73;;
70245;Laerm;57637;49.272;8.590;2023-02-28T07:14:49;51.31;44.62;68.94;;
70245;Laerm;57637;49.272;8.590;2023-02-28T07:17:14;57.57;44.42;76.61;;
70245;Laerm;57637;49.272;8.590;2023-02-28T07:19:40;51.02;44.73;73.41;;
70245;Laerm;57637;49.272;8.590;2023-02-28T07:22:06;50.59;44.72;68.46;;
70245;Laerm;57637;49.272;8.590;2023-02-28T07:24:32;50.29;45.16;66.15;;
70245;Laerm;57637;49.272;8.590;2023-02-28T07:26:57;50.21;45.27;69.94;;
70245;Laerm;57637;49.272;8.590;2023-02-28T07:29:24;51.60;44.68;71.19;;
70245;Laerm;57637;49.272;8.590;2023-02-28T07:31:49;52.67;45.49;72.09;;
70245;Laerm;57637;49.272;8.590;2023-02-28T07:34:18;53.73;45.20;72.97;;
70245;Laerm;57637;49.272;8.590;2023-02-28T07:36:44;55.27;47.79;72.92;;
70245;Laerm;57637;49.272;8.590;2023-02-28T07:39:09;53.27;48.19;62.46;;
70245;Laerm;57637;49.272;8.590;2023-02-28T07:41:35;54.40;48.09;71.42;;
70245;Laerm;57637;49.272;8.590;2023-02-28T07:44:04;53.47;45.36;69.21;;
70245;Laerm;57637;49.272;8.590;2023-02-28T07:46:30;53.67;48.17;64.92;;
70245;Laerm;57637;49.272;8.590;2023-02-28T07:49:00;54.69;49.49;66.33;;
70245;Laerm;57637;49.272;8.590;2023-02-28T07:51:30;55.45;48.61;76.23;;
70245;Laerm;57637;49.272;8.590;2023-02-28T07:53:56;53.72;47.14;70.62;;
70245;Laerm;57637;49.272;8.590;2023-02-28T07:56:22;55.01;45.79;84.27;;
70245;Laerm;57637;49.272;8.590;2023-02-28T07:58:47;50.98;46.35;66.15;;
70245;Laerm;57637;49.272;8.590;2023-02-28T08:01:12;48.39;43.54;69.45;;
70245;Laerm;57637;49.272;8.590;2023-02-28T08:03:39;47.65;43.30;54.50;;
70245;Laerm;57637;49.272;8.590;2023-02-28T08:06:06;47.48;43.39;60.30;;
70245;Laerm;57637;49.272;8.590;2023-02-28T08:08:32;49.47;43.43;67.43;;
70245;Laerm;57637;49.272;8.590;2023-02-28T08:11:01;48.39;43.33;64.97;;
70245;Laerm;57637;49.272;8.590;2023-02-28T08:13:29;46.88;42.38;55.01;;
70245;Laerm;57637;49.272;8.590;2023-02-28T08:15:55;48.18;44.01;61.50;;
70245;Laerm;57637;49.272;8.590;2023-02-28T08:18:22;53.42;44.66;76.15;;
70245;Laerm;57637;49.272;8.590;2023-02-28T08:20:48;49.35;43.89;67.06;;
70245;Laerm;57637;49.272;8.590;2023-02-28T08:23:14;55.41;44.63;75.54;;
70245;Laerm;57637;49.272;8.590;2023-02-28T08:25:39;53.41;44.09;75.40;;
70245;Laerm;57637;49.272;8.590;2023-02-28T08:28:05;49.19;44.19;62.02;;
70245;Laerm;57637;49.272;8.590;2023-02-28T08:30:30;51.05;44.55;74.25;;
70245;Laerm;57637;49.272;8.590;2023-02-28T08:32:56;50.01;43.84;71.29;;
70245;Laerm;57637;49.272;8.590;2023-02-28T08:35:22;47.82;44.08;68.86;;
70245;Laerm;57637;49.272;8.590;2023-02-28T08:37:48;48.98;43.67;68.94;;
70245;Laerm;57637;49.272;8.590;2023-02-28T08:40:14;53.48;43.98;74.08;;
70245;Laerm;57637;49.272;8.590;2023-02-28T08:42:44;52.13;48.08;58.38;;
70245;Laerm;57637;49.272;8.590;2023-02-28T08:45:10;54.01;47.43;67.98;;
70245;Laerm;57637;49.272;8.590;2023-02-28T08:47:35;54.95;49.44;72.95;;
70245;Laerm;57637;49.272;8.590;2023-02-28T08:50:01;55.49;48.34;80.00;;
70245;Laerm;57637;49.272;8.590;2023-02-28T08:52:26;52.06;42.83;69.28;;
70245;Laerm;57637;49.272;8.590;2023-02-28T08:54:52;48.64;42.85;63.78;;
70245;Laerm;57637;49.272;8.590;2023-02-28T08:57:17;49.62;43.26;62.96;;
70245;Laerm;57637;49.272;8.590;2023-02-28T08:59:42;55.06;44.12;76.01;;
70245;Laerm;57637;49.272;8.590;2023-02-28T09:02:11;50.64;43.12;66.98;;
70245;Laerm;57637;49.272;8.590;2023-02-28T09:04:37;53.33;43.47;71.26;;
70245;Laerm;57637;49.272;8.590;2023-02-28T09:07:02;53.88;43.56;79.65;;
70245;Laerm;57637;49.272;8.590;2023-02-28T09:09:28;50.91;43.43;75.33;;
70245;Laerm;57637;49.272;8.590;2023-02-28T09:11:55;49.56;43.77;66.70;;
70245;Laerm;57637;49.272;8.590;2023-02-28T09:14:21;53.08;43.48;79.01;;
70245;Laerm;57637;49.272;8.590;2023-02-28T09:16:46;52.39;43.28;77.27;;
70245;Laerm;57637;49.272;8.590;2023-02-28T09:19:12;49.87;42.37;69.83;;
70245;Laerm;57637;49.272;8.590;2023-02-28T09:21:37;56.54;42.65;73.53;;
70245;Laerm;57637;49.272;8.590;2023-02-28T09:24:03;55.63;43.75;72.39;;
70245;Laerm;57637;49.272;8.590;2023-02-28T09:26:28;56.60;42.64;72.82;;
70245;Laerm;57637;49.272;8.590;2023-02-28T09:28:54;58.74;41.57;74.64;;
70245;Laerm;57637;49.272;8.590;2023-02-28T09:31:23;60.08;42.08;77.86;;
70245;Laerm;57637;49.272;8.590;2023-02-28T09:33:53;48.21;42.14;69.69;;
70245;Laerm;57637;49.272;8.590;2023-02-28T09:36:21;48.81;41.52;73.47;;
70245;Laerm;57637;49.272;8.590;2023-02-28T09:38:46;46.75;42.13;61.10;;
70245;Laerm;57637;49.272;8.590;2023-02-28T09:41:23;48.05;41.97;65.98;;
70245;Laerm;57637;49.272;8.590;2023-02-28T09:43:53;53.53;42.20;73.77;;
70245;Laerm;57637;49.272;8.590;2023-02-28T09:46:33;53.21;42.29;77.78;;
70245;Laerm;57637;49.272;8.590;2023-02-28T09:49:02;51.51;42.91;81.11;;
70245;Laerm;57637;49.272;8.590;2023-02-28T09:54:11;47.92;42.29;67.01;;
70245;Laerm;57637;49.272;8.590;2023-02-28T09:56:42;51.69;42.29;78.09;;
70245;Laerm;57637;49.272;8.590;2023-02-28T10:04:45;47.72;42.68;70.11;;
70245;Laerm;57637;49.272;8.590;2023-02-28T10:10:30;49.05;42.37;65.90;;
70245;Laerm;57637;49.272;8.590;2023-02-28T10:13:00;50.40;41.68;71.01;;
70245;Laerm;57637;49.272;8.590;2023-02-28T10:15:30;59.52;42.68;75.14;;
70245;Laerm;57637;49.272;8.590;2023-02-28T10:18:03;52.35;43.31;70.53;;
70245;Laerm;57637;49.272;8.590;2023-02-28T10:20:32;53.80;41.75;72.80;;
70245;Laerm;57637;49.272;8.590;2023-02-28T10:23:16;48.11;42.88;65.64;;
70245;Laerm;57637;49.272;8.590;2023-02-28T10:25:50;48.16;42.65;67.91;;
70245;Laerm;57637;49.272;8.590;2023-02-28T10:28:17;47.80;42.57;68.60;;
70245;Laerm;57637;49.272;8.590;2023-02-28T10:30:46;50.40;43.59;68.61;;
70245;Laerm;57637;49.272;8.590;2023-02-28T10:33:22;47.82;43.92;68.07;;
70245;Laerm;57637;49.272;8.590;2023-02-28T10:35:48;46.96;43.12;57.24;;
70245;Laerm;57637;49.272;8.590;2023-02-28T10:38:39;47.90;43.36;60.73;;
70245;Laerm;57637;49.272;8.590;2023-02-28T10:41:16;48.05;42.89;64.74;;
70245;Laerm;57637;49.272;8.590;2023-02-28T10:43:51;58.15;42.12;85.57;;
70245;Laerm;57637;49.272;8.590;2023-02-28T10:46:18;54.29;44.74;76.38;;
70245;Laerm;57637;49.272;8.590;2023-02-28T10:49:03;53.78;44.03;66.35;;
70245;Laerm;57637;49.272;8.590;2023-02-28T10:51:38;53.05;44.67;62.38;;
70245;Laerm;57637;49.272;8.590;2023-02-28T10:54:04;53.19;42.97;70.99;;
70245;Laerm;57637;49.272;8.590;2023-02-28T10:56:30;54.32;47.96;70.14;;
70245;Laerm;57637;49.272;8.590;2023-02-28T10:59:20;53.32;43.23;70.01;;
70245;Laerm;57637;49.272;8.590;2023-02-28T11:01:48;50.04;42.08;74.79;;
70245;Laerm;57637;49.272;8.590;2023-02-28T11:07:18;51.27;43.55;71.26;;
70245;Laerm;57637;49.272;8.590;2023-02-28T11:09:49;52.36;43.94;66.81;;
70245;Laerm;57637;49.272;8.590;2023-02-28T11:14:57;53.39;43.86;78.29;;
70245;Laerm;57637;49.272;8.590;2023-02-28T11:17:28;48.23;43.06;65.39;;
70245;Laerm;57637;49.272;8.590;2023-02-28T11:20:05;49.45;42.14;70.38;;
70245;Laerm;57637;49.272;8.590;2023-02-28T11:22:36;53.70;42.49;77.39;;
70245;Laerm;57637;49.272;8.590;2023-02-28T11:25:12;53.77;42.29;75.78;;
70245;Laerm;57637;49.272;8.590;2023-02-28T11:27:50;50.02;41.88;73.15;;
70245;Laerm;57637;49.272;8.590;2023-02-28T11:30:35;46.34;41.82;56.21;;
70245;Laerm;57637;49.272;8.590;2023-02-28T11:33:30;49.53;41.15;73.14;;
70245;Laerm;57637;49.272;8.590;2023-02-28T11:35:58;49.89;41.96;70.57;;
70245;Laerm;57637;49.272;8.590;2023-02-28T11:38:26;48.50;42.96;68.75;;
70245;Laerm;57637;49.272;8.590;2023-02-28T11:46:16;53.13;42.47;82.35;;
70245;Laerm;57637;49.272;8.590;2023-02-28T11:51:34;46.39;41.86;55.28;;
70245;Laerm;57637;49.272;8.590;2023-02-28T11:57:09;49.02;41.82;70.93;;
70245;Laerm;57637;49.272;8.590;2023-02-28T12:02:29;47.78;42.02;64.57;;
70245;Laerm;57637;49.272;8.590;2023-02-28T12:07:50;49.41;45.59;66.98;;
70245;Laerm;57637;49.272;8.590;2023-02-28T12:10:25;48.90;44.55;63.31;;
70245;Laerm;57637;49.272;8.590;2023-02-28T12:17:59;52.62;44.41;74.40;;
70245;Laerm;57637;49.272;8.590;2023-02-28T12:20:49;49.29;44.19;71.24;;
70245;Laerm;57637;49.272;8.590;2023-02-28T12:28:53;53.17;44.03;75.91;;
70245;Laerm;57637;49.272;8.590;2023-02-28T12:31:24;49.29;44.02;65.43;;
70245;Laerm;57637;49.272;8.590;2023-02-28T12:33:52;49.08;44.31;72.14;;
70245;Laerm;57637;49.272;8.590;2023-02-28T12:36:19;52.24;44.60;68.66;;
70245;Laerm;57637;49.272;8.590;2023-02-28T12:38:55;49.70;44.61;69.02;;
70245;Laerm;57637;49.272;8.590;2023-02-28T12:44:27;52.49;45.20;70.24;;
70245;Laerm;57637;49.272;8.590;2023-02-28T12:46:59;52.71;44.15;79.34;;
70245;Laerm;57637;49.272;8.590;2023-02-28T12:49:30;49.42;45.04;66.12;;
70245;Laerm;57637;49.272;8.590;2023-02-28T12:51:58;51.47;44.19;77.97;;
70245;Laerm;57637;49.272;8.590;2023-02-28T12:54:51;50.64;44.96;66.32;;
70245;Laerm;57637;49.272;8.590;2023-02-28T13:00:00;50.25;44.88;66.05;;
70245;Laerm;57637;49.272;8.590;2023-02-28T13:02:59;48.24;42.55;62.35;;
70245;Laerm;57637;49.272;8.590;2023-02-28T13:10:51;48.51;43.48;77.50;;
70245;Laerm;57637;49.272;8.590;2023-02-28T13:13:22;48.75;44.45;63.76;;
70245;Laerm;57637;49.272;8.590;2023-02-28T13:18:30;50.81;43.08;71.59;;
70245;Laerm;57637;49.272;8.590;2023-02-28T13:20:56;49.11;42.80;65.03;;
70245;Laerm;57637;49.272;8.590;2023-02-28T13:23:56;48.24;42.66;65.68;;
70245;Laerm;57637;49.272;8.590;2023-02-28T13:29:08;51.64;42.92;70.40;;
70245;Laerm;57637;49.272;8.590;2023-02-28T13:39:50;52.27;47.15;67.15;;
70245;Laerm;57637;49.272;8.590;2023-02-28T13:45:20;51.71;47.39;62.72;;
70245;Laerm;57637;49.272;8.590;2023-02-28T13:50:49;47.53;40.87;71.75;;
70245;Laerm;57637;49.272;8.590;2023-02-28T13:55:59;51.00;41.80;73.27;;
70245;Laerm;57637;49.272;8.590;2023-02-28T14:04:13;51.29;45.79;59.65;;
70245;Laerm;57637;49.272;8.590;2023-02-28T14:06:48;51.65;43.54;70.24;;
70245;Laerm;57637;49.272;8.590;2023-02-28T14:09:40;51.28;46.51;58.03;;
70245;Laerm;57637;49.272;8.590;2023-02-28T14:12:54;48.68;42.99;56.52;;
70245;Laerm;57637;49.272;8.590;2023-02-28T14:15:26;47.68;42.61;57.62;;
70245;Laerm;57637;49.272;8.590;2023-02-28T14:17:53;52.57;42.85;65.19;;
70245;Laerm;57637;49.272;8.590;2023-02-28T14:20:22;59.03;46.01;87.18;;
70245;Laerm;57637;49.272;8.590;2023-02-28T14:23:15;52.25;46.35;69.73;;
70245;Laerm;57637;49.272;8.590;2023-02-28T14:31:40;56.03;41.80;72.21;;
70245;Laerm;57637;49.272;8.590;2023-02-28T14:36:39;47.60;42.79;61.16;;
70245;Laerm;57637;49.272;8.590;2023-02-28T14:39:10;53.54;42.84;72.01;;
70245;Laerm;57637;49.272;8.590;2023-02-28T14:41:38;48.52;42.01;73.09;;
70245;Laerm;57637;49.272;8.590;2023-02-28T14:47:14;48.26;42.39;62.55;;
70245;Laerm;57637;49.272;8.590;2023-02-28T14:49:45;46.33;42.53;59.18;;
70245;Laerm;57637;49.272;8.590;2023-02-28T14:52:31;46.30;41.59;60.23;;
70245;Laerm;57637;49.272;8.590;2023-02-28T14:55:06;46.58;42.32;65.86;;
70245;Laerm;57637;49.272;8.590;2023-02-28T14:57:42;51.97;42.05;76.69;;
70245;Laerm;57637;49.272;8.590;2023-02-28T15:02:45;46.75;42.42;61.30;;
70245;Laerm;57637;49.272;8.590;2023-02-28T15:07:47;49.32;42.68;65.75;;
70245;Laerm;57637;49.272;8.590;2023-02-28T15:12:43;47.90;42.80;64.44;;
70245;Laerm;57637;49.272;8.590;2023-02-28T15:15:18;47.32;42.60;63.49;;
70245;Laerm;57637;49.272;8.590;2023-02-28T15:17:52;48.31;43.38;60.96;;
70245;Laerm;57637;49.272;8.590;2023-02-28T15:20:19;49.82;44.04;65.04;;
70245;Laerm;57637;49.272;8.590;2023-02-28T15:22:46;51.16;44.96;60.33;;
70245;Laerm;57637;49.272;8.590;2023-02-28T15:25:15;51.74;42.41;72.66;;
70245;Laerm;57637;49.272;8.590;2023-02-28T15:27:46;50.21;43.78;61.74;;
70245;Laerm;57637;49.272;8.590;2023-02-28T15:30:20;50.41;43.99;64.69;;
70245;Laerm;57637;49.272;8.590;2023-02-28T15:33:07;48.92;42.78;57.75;;
70245;Laerm;57637;49.272;8.590;2023-02-28T15:35:42;49.28;43.17;56.44;;
70245;Laerm;57637;49.272;8.590;2023-02-28T15:38:21;49.60;42.48;69.49;;
70245;Laerm;57637;49.272;8.590;2023-02-28T15:40:53;48.44;43.31;56.85;;
70245;Laerm;57637;49.272;8.590;2023-02-28T15:43:31;46.73;42.67;53.41;;
70245;Laerm;57637;49.272;8.590;2023-02-28T15:46:00;47.34;41.50;60.39;;
70245;Laerm;57637;49.272;8.590;2023-02-28T15:51:08;49.77;41.27;71.96;;
70245;Laerm;57637;49.272;8.590;2023-02-28T15:58:58;57.56;41.83;82.60;;
70245;Laerm;57637;49.272;8.590;2023-02-28T16:01:26;52.31;42.55;71.33;;
70245;Laerm;57637;49.272;8.590;2023-02-28T16:03:57;51.86;42.54;65.77;;
70245;Laerm;57637;49.272;8.590;2023-02-28T16:06:36;50.49;43.04;72.63;;
70245;Laerm;57637;49.272;8.590;2023-02-28T16:09:04;57.63;42.14;73.53;;
70245;Laerm;57637;49.272;8.590;2023-02-28T16:11:30;59.45;43.27;75.90;;
70245;Laerm;57637;49.272;8.590;2023-02-28T16:13:58;56.75;42.96;76.14;;